sensor_id;sensor_type;location;lat;lon;timestamp;pressure;altitude;pressure_sealevel;temperature;humidity
27429;BME280;14881;48.092;11.574;2022-10-16T00:02:02;95517.53;;;9.81;100.00
27429;BME280;14881;48.092;11.574;2022-10-16T00:04:29;95514.84;;;9.75;100.00
27429;BME280;14881;48.092;11.574;2022-10-16T00:06:57;95508.59;;;9.75;100.00
27429;BME280;14881;48.092;11.574;2022-10-16T00:09:25;95506.16;;;9.73;100.00
27429;BME280;14881;48.092;11.574;2022-10-16T00:11:54;95520.28;;;9.75;100.00
27429;BME280;14881;48.092;11.574;2022-10-16T00:14:21;95515.91;;;9.80;100.00
27429;BME280;14881;48.092;11.574;2022-10-16T00:16:49;95517.28;;;9.77;100.00
27429;BME280;14881;48.092;11.574;2022-10-16T00:19:17;95515.41;;;9.72;100.00
27429;BME280;14881;48.092;11.574;2022-10-16T00:21:44;95523.25;;;9.74;100.00
27429;BME280;14881;48.092;11.574;2022-10-16T00:24:12;95526.84;;;9.69;100.00
27429;BME280;14881;48.092;11.574;2022-10-16T00:26:40;95513.22;;;9.74;100.00
27429;BME280;14881;48.092;11.574;2022-10-16T00:29:09;95521.09;;;9.71;100.00
27429;BME280;14881;48.092;11.574;2022-10-16T00:31:37;95520.41;;;9.60;100.00
27429;BME280;14881;48.092;11.574;2022-10-16T00:34:04;95521.47;;;9.59;100.00
27429;BME280;14881;48.092;11.574;2022-10-16T00:36:32;95517.19;;;9.53;100.00
27429;BME280;14881;48.092;11.574;2022-10-16T00:39:00;95516.97;;;9.50;100.00
27429;BME280;14881;48.092;11.574;2022-10-16T00:41:29;95515.38;;;9.43;100.00
27429;BME280;14881;48.092;11.574;2022-10-16T00:43:58;95520.25;;;9.41;100.00
27429;BME280;14881;48.092;11.574;2022-10-16T00:46:30;95518.09;;;9.38;100.00
27429;BME280;14881;48.092;11.574;2022-10-16T00:49:02;95515.38;;;9.38;100.00
27429;BME280;14881;48.092;11.574;2022-10-16T00:51:33;95526.50;;;9.37;100.00
27429;BME280;14881;48.092;11.574;2022-10-16T00:54:03;95518.66;;;9.35;100.00
27429;BME280;14881;48.092;11.574;2022-10-16T00:56:32;95512.94;;;9.37;100.00
27429;BME280;14881;48.092;11.574;2022-10-16T00:59:01;95519.72;;;9.39;100.00
27429;BME280;14881;48.092;11.574;2022-10-16T01:01:32;95514.03;;;9.36;100.00
27429;BME280;14881;48.092;11.574;2022-10-16T01:04:00;95515.38;;;9.38;100.00
27429;BME280;14881;48.092;11.574;2022-10-16T01:06:35;95521.31;;;9.46;100.00
27429;BME280;14881;48.092;11.574;2022-10-16T01:09:11;95528.66;;;9.40;100.00
27429;BME280;14881;48.092;11.574;2022-10-16T01:11:48;95528.41;;;9.36;100.00
27429;BME280;14881;48.092;11.574;2022-10-16T01:14:24;95532.22;;;9.35;100.00
27429;BME280;14881;48.092;11.574;2022-10-16T01:17:00;95534.41;;;9.33;100.00
27429;BME280;14881;48.092;11.574;2022-10-16T01:19:41;95540.13;;;9.32;100.00
27429;BME280;14881;48.092;11.574;2022-10-16T01:22:12;95544.94;;;9.40;100.00
27429;BME280;14881;48.092;11.574;2022-10-16T01:24:43;95555.25;;;9.38;100.00
27429;BME280;14881;48.092;11.574;2022-10-16T01:27:17;95549.81;;;9.38;100.00
27429;BME280;14881;48.092;11.574;2022-10-16T01:29:52;95541.75;;;9.33;100.00
27429;BME280;14881;48.092;11.574;2022-10-16T01:32:28;95529.56;;;9.30;100.00
27429;BME280;14881;48.092;11.574;2022-10-16T01:35:02;95539.56;;;9.35;100.00
27429;BME280;14881;48.092;11.574;2022-10-16T01:37:36;95542.56;;;9.33;100.00
27429;BME280;14881;48.092;11.574;2022-10-16T01:40:08;95543.38;;;9.29;100.00
27429;BME280;14881;48.092;11.574;2022-10-16T01:42:41;95543.38;;;9.29;100.00
27429;BME280;14881;48.092;11.574;2022-10-16T01:45:12;95540.94;;;9.32;100.00
27429;BME280;14881;48.092;11.574;2022-10-16T01:47:41;95541.75;;;9.28;100.00
27429;BME280;14881;48.092;11.574;2022-10-16T01:50:11;95535.00;;;9.25;100.00
27429;BME280;14881;48.092;11.574;2022-10-16T01:52:43;95535.03;;;9.20;100.00
27429;BME280;14881;48.092;11.574;2022-10-16T01:55:14;95538.00;;;9.19;100.00
27429;BME280;14881;48.092;11.574;2022-10-16T01:57:47;95532.91;;;9.17;100.00
27429;BME280;14881;48.092;11.574;2022-10-16T02:00:17;95530.69;;;9.19;100.00
27429;BME280;14881;48.092;11.574;2022-10-16T02:02:49;95529.84;;;9.24;100.00
27429;BME280;14881;48.092;11.574;2022-10-16T02:05:23;95523.91;;;9.22;100.00
27429;BME280;14881;48.092;11.574;2022-10-16T02:07:52;95531.78;;;9.18;100.00
27429;BME280;14881;48.092;11.574;2022-10-16T02:10:21;95528.50;;;9.21;100.00
27429;BME280;14881;48.092;11.574;2022-10-16T02:12:56;95531.19;;;9.31;100.00
27429;BME280;14881;48.092;11.574;2022-10-16T02:15:25;95526.28;;;9.33;100.00
27429;BME280;14881;48.092;11.574;2022-10-16T02:17:52;95518.63;;;9.40;100.00
27429;BME280;14881;48.092;11.574;2022-10-16T02:20:25;95522.97;;;9.41;100.00
27429;BME280;14881;48.092;11.574;2022-10-16T02:22:56;95522.69;;;9.43;100.00
27429;BME280;14881;48.092;11.574;2022-10-16T02:25:27;95530.00;;;9.42;100.00
27429;BME280;14881;48.092;11.574;2022-10-16T02:28:00;95527.28;;;9.42;100.00
27429;BME280;14881;48.092;11.574;2022-10-16T02:30:33;95528.38;;;9.47;100.00
27429;BME280;14881;48.092;11.574;2022-10-16T02:33:03;95523.47;;;9.49;100.00
27429;BME280;14881;48.092;11.574;2022-10-16T02:35:33;95530.34;;;9.70;100.00
27429;BME280;14881;48.092;11.574;2022-10-16T02:38:01;95523.53;;;9.72;100.00
27429;BME280;14881;48.092;11.574;2022-10-16T02:40:29;95519.09;;;9.87;100.00
27429;BME280;14881;48.092;11.574;2022-10-16T02:42:58;95527.41;;;10.00;100.00
27429;BME280;14881;48.092;11.574;2022-10-16T02:45:26;95523.59;;;10.01;100.00
27429;BME280;14881;48.092;11.574;2022-10-16T02:47:53;95534.59;;;10.15;100.00
27429;BME280;14881;48.092;11.574;2022-10-16T02:50:21;95539.00;;;10.06;100.00
27429;BME280;14881;48.092;11.574;2022-10-16T02:52:50;95535.78;;;10.04;100.00
27429;BME280;14881;48.092;11.574;2022-10-16T02:55:18;95529.81;;;10.02;100.00
27429;BME280;14881;48.092;11.574;2022-10-16T02:57:46;95540.44;;;9.98;100.00
27429;BME280;14881;48.092;11.574;2022-10-16T03:00:16;95532.97;;;9.85;100.00
27429;BME280;14881;48.092;11.574;2022-10-16T03:02:44;95535.22;;;9.73;100.00
27429;BME280;14881;48.092;11.574;2022-10-16T03:05:13;95544.00;;;9.60;100.00
27429;BME280;14881;48.092;11.574;2022-10-16T03:07:41;95534.03;;;9.50;100.00
27429;BME280;14881;48.092;11.574;2022-10-16T03:10:08;95530.00;;;9.42;100.00
27429;BME280;14881;48.092;11.574;2022-10-16T03:12:36;95526.75;;;9.46;100.00
27429;BME280;14881;48.092;11.574;2022-10-16T03:15:04;95533.81;;;9.41;100.00
27429;BME280;14881;48.092;11.574;2022-10-16T03:17:34;95547.38;;;9.36;100.00
27429;BME280;14881;48.092;11.574;2022-10-16T03:20:02;95538.78;;;9.29;100.00
27429;BME280;14881;48.092;11.574;2022-10-16T03:22:30;95543.94;;;9.26;100.00
27429;BME280;14881;48.092;11.574;2022-10-16T03:24:58;95534.44;;;9.28;100.00
27429;BME280;14881;48.092;11.574;2022-10-16T03:27:25;95540.69;;;9.24;100.00
27429;BME280;14881;48.092;11.574;2022-10-16T03:29:54;95544.00;;;9.16;100.00
27429;BME280;14881;48.092;11.574;2022-10-16T03:32:22;95543.72;;;9.17;100.00
27429;BME280;14881;48.092;11.574;2022-10-16T03:34:52;95545.31;;;9.23;100.00
27429;BME280;14881;48.092;11.574;2022-10-16T03:37:20;95538.53;;;9.21;100.00
27429;BME280;14881;48.092;11.574;2022-10-16T03:39:48;95538.75;;;9.34;100.00
27429;BME280;14881;48.092;11.574;2022-10-16T03:42:15;95543.25;;;9.49;100.00
27429;BME280;14881;48.092;11.574;2022-10-16T03:44:43;95551.25;;;9.69;100.00
27429;BME280;14881;48.092;11.574;2022-10-16T03:47:11;95555.41;;;9.91;100.00
27429;BME280;14881;48.092;11.574;2022-10-16T03:49:38;95554.44;;;10.10;100.00
27429;BME280;14881;48.092;11.574;2022-10-16T03:52:07;95555.38;;;10.30;100.00
27429;BME280;14881;48.092;11.574;2022-10-16T03:54:35;95547.94;;;10.40;100.00
27429;BME280;14881;48.092;11.574;2022-10-16T03:57:03;95547.72;;;10.61;100.00
27429;BME280;14881;48.092;11.574;2022-10-16T03:59:31;95541.59;;;10.74;100.00
27429;BME280;14881;48.092;11.574;2022-10-16T04:01:58;95540.81;;;10.73;100.00
27429;BME280;14881;48.092;11.574;2022-10-16T04:04:26;95543.56;;;10.68;100.00
27429;BME280;14881;48.092;11.574;2022-10-16T04:06:53;95544.16;;;10.65;100.00
27429;BME280;14881;48.092;11.574;2022-10-16T04:09:22;95543.03;;;10.66;100.00
27429;BME280;14881;48.092;11.574;2022-10-16T04:11:50;95534.66;;;10.63;100.00
27429;BME280;14881;48.092;11.574;2022-10-16T04:14:18;95532.06;;;10.53;100.00
27429;BME280;14881;48.092;11.574;2022-10-16T04:16:46;95541.03;;;10.53;100.00
27429;BME280;14881;48.092;11.574;2022-10-16T04:19:13;95535.34;;;10.50;100.00
27429;BME280;14881;48.092;11.574;2022-10-16T04:21:41;95536.44;;;10.49;100.00
27429;BME280;14881;48.092;11.574;2022-10-16T04:24:08;95538.88;;;10.50;100.00
27429;BME280;14881;48.092;11.574;2022-10-16T04:26:38;95538.34;;;10.48;100.00
27429;BME280;14881;48.092;11.574;2022-10-16T04:29:05;95542.97;;;10.48;100.00
27429;BME280;14881;48.092;11.574;2022-10-16T04:31:33;95559.56;;;10.46;100.00
27429;BME280;14881;48.092;11.574;2022-10-16T04:34:01;95544.41;;;10.40;100.00
27429;BME280;14881;48.092;11.574;2022-10-16T04:36:29;95552.88;;;10.38;100.00
27429;BME280;14881;48.092;11.574;2022-10-16T04:38:57;95549.34;;;10.38;100.00
27429;BME280;14881;48.092;11.574;2022-10-16T04:41:24;95548.75;;;10.41;100.00
27429;BME280;14881;48.092;11.574;2022-10-16T04:43:53;95546.63;;;10.38;100.00
27429;BME280;14881;48.092;11.574;2022-10-16T04:46:21;95541.13;;;10.43;100.00
27429;BME280;14881;48.092;11.574;2022-10-16T04:48:49;95557.41;;;10.43;100.00
27429;BME280;14881;48.092;11.574;2022-10-16T04:51:16;95550.31;;;10.47;100.00
27429;BME280;14881;48.092;11.574;2022-10-16T04:53:45;95544.94;;;10.42;100.00
27429;BME280;14881;48.092;11.574;2022-10-16T04:56:12;95540.31;;;10.42;100.00
27429;BME280;14881;48.092;11.574;2022-10-16T04:58:41;95536.78;;;10.42;100.00
27429;BME280;14881;48.092;11.574;2022-10-16T05:01:10;95544.84;;;10.52;100.00
27429;BME280;14881;48.092;11.574;2022-10-16T05:03:38;95547.28;;;10.54;100.00
27429;BME280;14881;48.092;11.574;2022-10-16T05:06:06;95548.81;;;10.60;100.00
27429;BME280;14881;48.092;11.574;2022-10-16T05:08:34;95555.81;;;10.66;100.00
27429;BME280;14881;48.092;11.574;2022-10-16T05:11:01;95547.19;;;10.59;100.00
27429;BME280;14881;48.092;11.574;2022-10-16T05:13:29;95547.78;;;10.56;100.00
27429;BME280;14881;48.092;11.574;2022-10-16T05:15:57;95545.38;;;10.54;100.00
27429;BME280;14881;48.092;11.574;2022-10-16T05:18:26;95533.59;;;10.59;100.00
27429;BME280;14881;48.092;11.574;2022-10-16T05:20:53;95533.31;;;10.60;100.00
27429;BME280;14881;48.092;11.574;2022-10-16T05:23:21;95539.00;;;10.64;100.00
27429;BME280;14881;48.092;11.574;2022-10-16T05:25:53;95544.16;;;10.65;100.00
27429;BME280;14881;48.092;11.574;2022-10-16T05:28:21;95547.66;;;10.66;100.00
27429;BME280;14881;48.092;11.574;2022-10-16T05:30:49;95553.97;;;10.61;100.00
27429;BME280;14881;48.092;11.574;2022-10-16T05:33:19;95551.53;;;10.60;100.00
27429;BME280;14881;48.092;11.574;2022-10-16T05:35:48;95551.81;;;10.58;100.00
27429;BME280;14881;48.092;11.574;2022-10-16T05:38:16;95556.69;;;10.61;100.00
27429;BME280;14881;48.092;11.574;2022-10-16T05:40:50;95556.09;;;10.64;100.00
27429;BME280;14881;48.092;11.574;2022-10-16T05:43:18;95570.47;;;10.70;100.00
27429;BME280;14881;48.092;11.574;2022-10-16T05:45:53;95571.03;;;10.67;100.00
27429;BME280;14881;48.092;11.574;2022-10-16T05:48:21;95575.69;;;10.61;100.00
27429;BME280;14881;48.092;11.574;2022-10-16T05:50:56;95575.78;;;10.56;100.00
27429;BME280;14881;48.092;11.574;2022-10-16T05:53:24;95586.13;;;10.54;100.00
27429;BME280;14881;48.092;11.574;2022-10-16T05:55:53;95583.19;;;10.45;100.00
27429;BME280;14881;48.092;11.574;2022-10-16T05:58:21;95584.56;;;10.43;100.00
27429;BME280;14881;48.092;11.574;2022-10-16T06:00:55;95580.84;;;10.39;100.00
27429;BME280;14881;48.092;11.574;2022-10-16T06:03:24;95597.16;;;10.34;100.00
27429;BME280;14881;48.092;11.574;2022-10-16T06:05:53;95590.41;;;10.31;100.00
27429;BME280;14881;48.092;11.574;2022-10-16T06:08:22;95590.97;;;10.28;100.00
27429;BME280;14881;48.092;11.574;2022-10-16T06:11:00;95597.44;;;10.32;100.00
27429;BME280;14881;48.092;11.574;2022-10-16T06:13:28;95596.53;;;10.42;100.00
27429;BME280;14881;48.092;11.574;2022-10-16T06:15:57;95598.69;;;10.45;100.00
27429;BME280;14881;48.092;11.574;2022-10-16T06:18:25;95594.59;;;10.48;100.00
27429;BME280;14881;48.092;11.574;2022-10-16T06:20:55;95602.72;;;10.48;100.00
27429;BME280;14881;48.092;11.574;2022-10-16T06:23:23;95601.63;;;10.49;100.00
27429;BME280;14881;48.092;11.574;2022-10-16T06:25:51;95599.69;;;10.54;100.00
27429;BME280;14881;48.092;11.574;2022-10-16T06:28:19;95598.19;;;10.67;100.00
27429;BME280;14881;48.092;11.574;2022-10-16T06:30:47;95600.59;;;10.73;100.00
27429;BME280;14881;48.092;11.574;2022-10-16T06:33:15;95605.94;;;10.78;100.00
27429;BME280;14881;48.092;11.574;2022-10-16T06:35:45;95599.66;;;10.83;100.00
27429;BME280;14881;48.092;11.574;2022-10-16T06:38:14;95615.09;;;10.88;100.00
27429;BME280;14881;48.092;11.574;2022-10-16T06:40:41;95618.03;;;10.91;100.00
27429;BME280;14881;48.092;11.574;2022-10-16T06:43:09;95624.75;;;10.99;100.00
27429;BME280;14881;48.092;11.574;2022-10-16T06:45:37;95634.53;;;11.00;100.00
27429;BME280;14881;48.092;11.574;2022-10-16T06:48:05;95630.19;;;10.99;100.00
27429;BME280;14881;48.092;11.574;2022-10-16T06:50:33;95624.75;;;10.99;100.00
27429;BME280;14881;48.092;11.574;2022-10-16T06:53:00;95635.63;;;10.99;100.00
27429;BME280;14881;48.092;11.574;2022-10-16T06:55:30;95637.72;;;11.07;100.00
27429;BME280;14881;48.092;11.574;2022-10-16T06:57:58;95639.13;;;11.04;100.00
27429;BME280;14881;48.092;11.574;2022-10-16T07:00:25;95642.84;;;11.08;100.00
27429;BME280;14881;48.092;11.574;2022-10-16T07:02:53;95645.00;;;11.11;100.00
27429;BME280;14881;48.092;11.574;2022-10-16T07:05:21;95647.16;;;11.14;100.00
27429;BME280;14881;48.092;11.574;2022-10-16T07:07:48;95656.06;;;11.20;100.00
27429;BME280;14881;48.092;11.574;2022-10-16T07:10:16;95651.66;;;11.24;100.00
27429;BME280;14881;48.092;11.574;2022-10-16T07:12:45;95651.88;;;11.28;100.00
27429;BME280;14881;48.092;11.574;2022-10-16T07:15:13;95646.38;;;11.33;100.00
27429;BME280;14881;48.092;11.574;2022-10-16T07:17:40;95655.75;;;11.45;100.00
27429;BME280;14881;48.092;11.574;2022-10-16T07:20:09;95655.63;;;11.56;100.00
27429;BME280;14881;48.092;11.574;2022-10-16T07:22:37;95669.03;;;11.71;100.00
27429;BME280;14881;48.092;11.574;2022-10-16T07:25:05;95660.63;;;11.91;100.00
27429;BME280;14881;48.092;11.574;2022-10-16T07:27:33;95668.88;;;12.24;100.00
27429;BME280;14881;48.092;11.574;2022-10-16T07:30:07;95662.84;;;12.59;100.00
27429;BME280;14881;48.092;11.574;2022-10-16T07:32:35;95669.59;;;12.94;100.00
27429;BME280;14881;48.092;11.574;2022-10-16T07:35:03;95657.44;;;13.33;100.00
27429;BME280;14881;48.092;11.574;2022-10-16T07:37:31;95658.44;;;13.64;100.00
27429;BME280;14881;48.092;11.574;2022-10-16T07:39:59;95654.84;;;13.91;100.00
27429;BME280;14881;48.092;11.574;2022-10-16T07:42:27;95653.53;;;14.24;100.00
27429;BME280;14881;48.092;11.574;2022-10-16T07:44:54;95646.59;;;14.54;100.00
27429;BME280;14881;48.092;11.574;2022-10-16T07:47:23;95652.28;;;14.89;100.00
27429;BME280;14881;48.092;11.574;2022-10-16T07:49:51;95644.56;;;15.22;100.00
27429;BME280;14881;48.092;11.574;2022-10-16T07:52:19;95649.22;;;15.61;100.00
27429;BME280;14881;48.092;11.574;2022-10-16T07:54:47;95641.38;;;15.94;100.00
27429;BME280;14881;48.092;11.574;2022-10-16T07:57:14;95643.38;;;16.19;100.00
27429;BME280;14881;48.092;11.574;2022-10-16T07:59:45;95646.78;;;16.42;100.00
27429;BME280;14881;48.092;11.574;2022-10-16T08:02:13;95650.47;;;16.55;100.00
27429;BME280;14881;48.092;11.574;2022-10-16T08:04:42;95651.44;;;16.67;100.00
27429;BME280;14881;48.092;11.574;2022-10-16T08:07:10;95654.00;;;16.81;100.00
27429;BME280;14881;48.092;11.574;2022-10-16T08:09:37;95648.03;;;16.96;100.00
27429;BME280;14881;48.092;11.574;2022-10-16T08:12:05;95658.28;;;17.17;100.00
27429;BME280;14881;48.092;11.574;2022-10-16T08:14:33;95648.03;;;17.34;100.00
27429;BME280;14881;48.092;11.574;2022-10-16T08:17:00;95657.19;;;17.56;100.00
27429;BME280;14881;48.092;11.574;2022-10-16T08:19:30;95652.75;;;17.72;100.00
27429;BME280;14881;48.092;11.574;2022-10-16T08:22:02;95654.44;;;17.94;100.00
27429;BME280;14881;48.092;11.574;2022-10-16T08:24:29;95655.59;;;18.14;100.00
27429;BME280;14881;48.092;11.574;2022-10-16T08:26:58;95652.72;;;18.31;100.00
27429;BME280;14881;48.092;11.574;2022-10-16T08:29:26;95658.56;;;18.50;100.00
27429;BME280;14881;48.092;11.574;2022-10-16T08:31:54;95657.66;;;18.58;100.00
27429;BME280;14881;48.092;11.574;2022-10-16T08:34:21;95656.41;;;18.76;100.00
27429;BME280;14881;48.092;11.574;2022-10-16T08:36:49;95663.56;;;18.90;100.00
27429;BME280;14881;48.092;11.574;2022-10-16T08:39:18;95669.72;;;19.07;100.00
27429;BME280;14881;48.092;11.574;2022-10-16T08:42:11;95658.16;;;19.26;100.00
27429;BME280;14881;48.092;11.574;2022-10-16T08:45:00;95668.78;;;19.48;100.00
27429;BME280;14881;48.092;11.574;2022-10-16T08:47:39;95663.66;;;19.59;100.00
27429;BME280;14881;48.092;11.574;2022-10-16T08:50:12;95667.47;;;19.67;100.00
27429;BME280;14881;48.092;11.574;2022-10-16T08:52:43;95665.63;;;19.71;100.00
27429;BME280;14881;48.092;11.574;2022-10-16T08:55:24;95672.19;;;19.91;100.00
27429;BME280;14881;48.092;11.574;2022-10-16T08:57:56;95680.91;;;20.05;100.00
27429;BME280;14881;48.092;11.574;2022-10-16T09:00:24;95682.06;;;20.16;100.00
27429;BME280;14881;48.092;11.574;2022-10-16T09:02:59;95689.75;;;20.23;100.00
27429;BME280;14881;48.092;11.574;2022-10-16T09:05:47;95694.59;;;20.38;100.00
27429;BME280;14881;48.092;11.574;2022-10-16T09:08:25;95690.00;;;20.42;100.00
27429;BME280;14881;48.092;11.574;2022-10-16T09:10:58;95688.00;;;20.55;100.00
27429;BME280;14881;48.092;11.574;2022-10-16T09:13:33;95692.22;;;20.76;100.00
27429;BME280;14881;48.092;11.574;2022-10-16T09:16:14;95698.59;;;20.93;100.00
27429;BME280;14881;48.092;11.574;2022-10-16T09:18:50;95695.44;;;21.06;100.00
27429;BME280;14881;48.092;11.574;2022-10-16T09:21:21;95694.81;;;21.13;100.00
27429;BME280;14881;48.092;11.574;2022-10-16T09:23:51;95688.56;;;21.28;100.00
27429;BME280;14881;48.092;11.574;2022-10-16T09:26:20;95686.63;;;21.44;100.00
27429;BME280;14881;48.092;11.574;2022-10-16T09:28:51;95683.88;;;21.60;100.00
27429;BME280;14881;48.092;11.574;2022-10-16T09:31:21;95687.63;;;21.83;100.00
27429;BME280;14881;48.092;11.574;2022-10-16T09:33:53;95692.09;;;21.88;100.00
27429;BME280;14881;48.092;11.574;2022-10-16T09:36:23;95703.97;;;22.04;100.00
27429;BME280;14881;48.092;11.574;2022-10-16T09:39:03;95697.59;;;22.35;100.00
27429;BME280;14881;48.092;11.574;2022-10-16T09:41:34;95706.69;;;22.51;100.00
27429;BME280;14881;48.092;11.574;2022-10-16T09:44:05;95685.13;;;22.96;100.00
27429;BME280;14881;48.092;11.574;2022-10-16T09:46:35;95690.28;;;23.36;100.00
27429;BME280;14881;48.092;11.574;2022-10-16T09:49:16;95695.06;;;23.58;100.00
27429;BME280;14881;48.092;11.574;2022-10-16T09:51:46;95690.16;;;23.71;97.02
27429;BME280;14881;48.092;11.574;2022-10-16T09:54:16;95696.72;;;24.08;97.77
27429;BME280;14881;48.092;11.574;2022-10-16T09:56:45;95698.22;;;24.25;93.82
27429;BME280;14881;48.092;11.574;2022-10-16T09:59:19;95701.22;;;24.66;92.06
27429;BME280;14881;48.092;11.574;2022-10-16T10:01:48;95700.53;;;24.98;93.60
27429;BME280;14881;48.092;11.574;2022-10-16T10:04:17;95700.88;;;25.27;95.13
27429;BME280;14881;48.092;11.574;2022-10-16T10:06:47;95699.78;;;25.35;90.30
27429;BME280;14881;48.092;11.574;2022-10-16T10:09:18;95699.72;;;25.28;85.90
27429;BME280;14881;48.092;11.574;2022-10-16T10:11:51;95703.03;;;25.41;88.65
27429;BME280;14881;48.092;11.574;2022-10-16T10:14:25;95699.50;;;25.81;85.77
27429;BME280;14881;48.092;11.574;2022-10-16T10:17:10;95699.19;;;25.89;76.77
27429;BME280;14881;48.092;11.574;2022-10-16T10:19:39;95702.09;;;25.63;76.84
27429;BME280;14881;48.092;11.574;2022-10-16T10:22:17;95689.31;;;25.99;84.06
27429;BME280;14881;48.092;11.574;2022-10-16T10:24:54;95698.72;;;26.28;77.35
27429;BME280;14881;48.092;11.574;2022-10-16T10:27:31;95702.09;;;26.51;72.19
27429;BME280;14881;48.092;11.574;2022-10-16T10:30:05;95696.06;;;26.42;71.66
27429;BME280;14881;48.092;11.574;2022-10-16T10:32:45;95700.22;;;26.62;73.17
27429;BME280;14881;48.092;11.574;2022-10-16T10:35:22;95700.50;;;26.50;67.94
27429;BME280;14881;48.092;11.574;2022-10-16T10:38:10;95697.78;;;26.57;68.75
27429;BME280;14881;48.092;11.574;2022-10-16T10:40:50;95705.75;;;26.59;67.50
27429;BME280;14881;48.092;11.574;2022-10-16T10:43:29;95702.66;;;26.75;71.93
27429;BME280;14881;48.092;11.574;2022-10-16T10:46:01;95696.91;;;27.08;69.36
27429;BME280;14881;48.092;11.574;2022-10-16T10:48:49;95693.78;;;27.27;66.43
27429;BME280;14881;48.092;11.574;2022-10-16T10:51:24;95695.03;;;27.33;63.20
27429;BME280;14881;48.092;11.574;2022-10-16T10:54:01;95690.94;;;27.13;57.92
27429;BME280;14881;48.092;11.574;2022-10-16T10:56:42;95703.75;;;26.59;58.11
27429;BME280;14881;48.092;11.574;2022-10-16T10:59:31;95696.88;;;27.01;61.29
27429;BME280;14881;48.092;11.574;2022-10-16T11:02:10;95702.59;;;27.36;62.63
27429;BME280;14881;48.092;11.574;2022-10-16T11:04:55;95691.16;;;27.66;60.51
27429;BME280;14881;48.092;11.574;2022-10-16T11:07:28;95691.97;;;27.70;60.15
27429;BME280;14881;48.092;11.574;2022-10-16T11:09:59;95691.97;;;27.78;56.33
27429;BME280;14881;48.092;11.574;2022-10-16T11:12:33;95685.63;;;27.95;62.59
27429;BME280;14881;48.092;11.574;2022-10-16T11:15:10;95680.81;;;27.95;55.17
27429;BME280;14881;48.092;11.574;2022-10-16T11:17:42;95675.25;;;28.02;51.54
27429;BME280;14881;48.092;11.574;2022-10-16T11:20:14;95671.25;;;28.00;53.63
27429;BME280;14881;48.092;11.574;2022-10-16T11:22:47;95681.25;;;28.01;52.34
27429;BME280;14881;48.092;11.574;2022-10-16T11:25:20;95680.06;;;28.41;52.21
27429;BME280;14881;48.092;11.574;2022-10-16T11:27:52;95676.03;;;28.63;54.37
27429;BME280;14881;48.092;11.574;2022-10-16T11:30:25;95680.81;;;28.59;56.62
27429;BME280;14881;48.092;11.574;2022-10-16T11:33:04;95687.25;;;28.35;55.57
27429;BME280;14881;48.092;11.574;2022-10-16T11:35:42;95678.84;;;28.24;56.43
27429;BME280;14881;48.092;11.574;2022-10-16T11:38:15;95674.47;;;28.37;60.52
27429;BME280;14881;48.092;11.574;2022-10-16T11:40:50;95678.88;;;28.35;57.02
27429;BME280;14881;48.092;11.574;2022-10-16T11:43:24;95676.44;;;27.94;52.25
27429;BME280;14881;48.092;11.574;2022-10-16T11:45:57;95686.16;;;27.14;51.29
27429;BME280;14881;48.092;11.574;2022-10-16T11:48:30;95680.19;;;27.15;49.58
27429;BME280;14881;48.092;11.574;2022-10-16T11:51:05;95673.41;;;27.20;50.10
27429;BME280;14881;48.092;11.574;2022-10-16T11:53:44;95673.94;;;27.54;49.37
27429;BME280;14881;48.092;11.574;2022-10-16T11:56:20;95672.03;;;27.90;46.18
27429;BME280;14881;48.092;11.574;2022-10-16T11:58:55;95671.22;;;27.82;49.28
27429;BME280;14881;48.092;11.574;2022-10-16T12:01:29;95666.44;;;28.07;48.72
27429;BME280;14881;48.092;11.574;2022-10-16T12:04:07;95669.31;;;28.22;46.55
27429;BME280;14881;48.092;11.574;2022-10-16T12:06:41;95678.81;;;27.92;45.64
27429;BME280;14881;48.092;11.574;2022-10-16T12:09:15;95674.56;;;27.08;44.92
27429;BME280;14881;48.092;11.574;2022-10-16T12:11:47;95678.69;;;27.35;47.83
27429;BME280;14881;48.092;11.574;2022-10-16T12:14:34;95676.88;;;26.92;47.75
27429;BME280;14881;48.092;11.574;2022-10-16T12:17:25;95683.00;;;27.22;47.26
27429;BME280;14881;48.092;11.574;2022-10-16T12:19:58;95680.25;;;27.33;47.78
27429;BME280;14881;48.092;11.574;2022-10-16T12:22:28;95673.63;;;26.79;47.08
27429;BME280;14881;48.092;11.574;2022-10-16T12:24:57;95678.25;;;26.57;47.35
27429;BME280;14881;48.092;11.574;2022-10-16T12:27:29;95677.91;;;26.62;49.68
27429;BME280;14881;48.092;11.574;2022-10-16T12:29:58;95678.56;;;27.07;53.12
27429;BME280;14881;48.092;11.574;2022-10-16T12:32:31;95676.63;;;27.22;48.10
27429;BME280;14881;48.092;11.574;2022-10-16T12:35:18;95669.63;;;26.80;50.37
27429;BME280;14881;48.092;11.574;2022-10-16T12:37:46;95676.53;;;26.97;49.96
27429;BME280;14881;48.092;11.574;2022-10-16T12:40:23;95679.56;;;26.74;50.73
27429;BME280;14881;48.092;11.574;2022-10-16T12:42:53;95668.75;;;26.65;49.20
27429;BME280;14881;48.092;11.574;2022-10-16T12:45:27;95673.63;;;26.79;52.19
27429;BME280;14881;48.092;11.574;2022-10-16T12:47:57;95669.69;;;26.91;48.88
27429;BME280;14881;48.092;11.574;2022-10-16T12:50:31;95670.06;;;26.89;50.99
27429;BME280;14881;48.092;11.574;2022-10-16T12:53:01;95662.13;;;26.91;51.50
27429;BME280;14881;48.092;11.574;2022-10-16T12:55:35;95665.84;;;27.17;53.71
27429;BME280;14881;48.092;11.574;2022-10-16T12:58:19;95670.25;;;27.25;53.23
27429;BME280;14881;48.092;11.574;2022-10-16T13:00:55;95668.72;;;27.34;53.18
27429;BME280;14881;48.092;11.574;2022-10-16T13:03:48;95668.75;;;27.49;51.79
27429;BME280;14881;48.092;11.574;2022-10-16T13:06:29;95665.22;;;27.62;49.11